Time;durP1;ratioP1;P1;durP2;ratioP2;P2;SDS_P1;SDS_P2;PMS_P1;PMS_P2;Temp;Humidity;BMP_temperature;BMP_pressure;BME280_temperature;BME280_humidity;BME280_pressure;Samples;Min_cycle;Max_cycle;Signal;HPM_P1;HPM_P2
2022/09/27 00:01:10;;;;;;;11.48;3.98;;;;;;;12.88;90.68;94522.48;1768447;81;21006;-70
2022/09/27 00:03:40;;;;;;;11.00;3.00;;;;;;;12.88;90.68;94522.48;1768553;80;21510;-71
2022/09/27 00:06:17;;;;;;;4.83;3.42;;;;;;;12.90;90.66;94512.69;1768383;80;21007;-71
2022/09/27 00:08:44;;;;;;;5.00;4.00;;;;;;;12.88;89.89;94505.75;1768565;80;20975;-71
2022/09/27 00:11:31;;;;;;;5.30;3.87;;;;;;;12.86;90.28;94512.89;1768264;81;21030;-71
2022/09/27 00:13:58;;;;;;;6.72;4.15;;;;;;;12.85;90.15;94500.13;1768529;80;20995;-71
2022/09/27 00:16:35;;;;;;;8.68;3.60;;;;;;;12.86;90.73;94496.54;1784858;80;21086;-71
2022/09/27 00:19:10;;;;;;;5.37;3.50;;;;;;;12.92;90.80;94498.05;1796172;80;21015;-71
2022/09/27 00:21:37;;;;;;;4.35;3.50;;;;;;;12.90;90.46;94488.86;1795397;79;21074;-71
2022/09/27 00:24:05;;;;;;;4.12;3.72;;;;;;;12.90;90.46;94486.22;1796187;80;21022;-71
2022/09/27 00:26:32;;;;;;;6.67;3.55;;;;;;;12.87;90.22;94475.73;1796232;80;21500;-71
2022/09/27 00:28:59;;;;;;;6.83;2.80;;;;;;;12.86;89.94;94495.69;1796192;80;21030;-71
2022/09/27 00:31:29;;;;;;;5.75;3.22;;;;;;;12.86;89.94;94495.69;1796498;80;21007;-71
2022/09/27 00:34:00;;;;;;;5.05;3.45;;;;;;;12.80;90.26;94503.88;1796237;80;21504;-71
2022/09/27 00:36:30;;;;;;;3.72;3.42;;;;;;;12.76;90.74;94507.14;1796300;80;21026;-71
2022/09/27 00:39:00;;;;;;;3.92;3.02;;;;;;;12.74;91.06;94492.64;1796220;80;21084;-70
2022/09/27 00:41:32;;;;;;;6.12;2.98;;;;;;;12.80;90.87;94485.36;1796062;80;21002;-71
2022/09/27 00:44:04;;;;;;;6.55;3.20;;;;;;;12.80;90.54;94480.95;1796258;80;21493;-71
2022/09/27 00:46:45;;;;;;;4.60;3.02;;;;;;;12.84;90.82;94476.36;1792514;80;21556;-71
2022/09/27 00:49:24;;;;;;;9.60;3.67;;;;;;;12.89;91.20;94479.19;1795204;80;21496;-71
2022/09/27 00:51:56;;;;;;;5.25;3.52;;;;;;;12.89;90.50;94477.86;1794770;80;21030;-71
2022/09/27 00:54:26;;;;;;;10.72;3.65;;;;;;;12.91;90.75;94459.27;1796255;80;21014;-71
2022/09/27 00:56:53;;;;;;;3.80;3.40;;;;;;;12.95;90.42;94456.86;1796077;80;21033;-71
2022/09/27 00:59:25;;;;;;;4.03;3.25;;;;;;;12.95;90.42;94456.86;1796074;80;21002;-71
2022/09/27 01:01:52;;;;;;;5.72;3.75;;;;;;;12.89;89.82;94459.80;1796374;79;20983;-71
2022/09/27 01:04:26;;;;;;;8.35;3.75;;;;;;;12.80;90.16;94452.27;1796323;79;21006;-71
2022/09/27 01:06:53;;;;;;;4.72;3.65;;;;;;;12.83;90.59;94446.39;1796441;80;20991;-71
2022/09/27 01:09:22;;;;;;;3.15;2.95;;;;;;;12.85;90.37;94449.83;1796309;80;21072;-71
2022/09/27 01:12:38;;;;;;;10.13;3.52;;;;;;;12.87;90.45;94446.63;1796140;79;21556;-71
2022/09/27 01:15:33;;;;;;;10.10;3.90;;;;;;;12.86;90.36;94448.03;1796164;80;21015;-70
2022/09/27 01:18:29;;;;;;;5.85;4.00;;;;;;;12.80;89.80;94443.00;1795893;80;21061;-71
2022/09/27 01:21:21;;;;;;;10.43;4.12;;;;;;;12.77;90.27;94444.88;1796344;80;20978;-71
2022/09/27 01:24:00;;;;;;;6.78;4.10;;;;;;;12.80;90.36;94434.63;1796226;80;21496;-72
2022/09/27 01:26:41;;;;;;;6.80;4.28;;;;;;;12.84;90.91;94428.23;1796231;80;20990;-71
2022/09/27 01:29:16;;;;;;;4.95;3.20;;;;;;;12.84;90.91;94428.23;1795331;80;21050;-71
2022/09/27 01:32:07;;;;;;;3.30;3.00;;;;;;;12.94;90.83;94406.17;1796340;80;21058;-71
2022/09/27 01:34:47;;;;;;;6.37;3.85;;;;;;;12.94;90.83;94406.17;1769425;80;21011;-71
2022/09/27 01:37:31;;;;;;;5.90;3.90;;;;;;;12.96;89.98;94418.41;1769516;80;21022;-71
2022/09/27 01:40:10;;;;;;;5.22;3.17;;;;;;;12.87;89.54;94410.88;1795506;80;21010;-71
2022/09/27 01:43:02;;;;;;;3.60;3.27;;;;;;;12.84;89.56;94400.44;1791724;80;21006;-71
2022/09/27 01:45:47;;;;;;;5.55;3.37;;;;;;;12.83;89.83;94402.70;1796233;80;21034;-71
2022/09/27 01:48:25;;;;;;;10.03;4.25;;;;;;;12.78;89.69;94408.68;1795725;80;20962;-71
2022/09/27 01:51:05;;;;;;;7.40;4.00;;;;;;;12.80;90.45;94401.98;1796412;80;21054;-71
2022/09/27 01:53:40;;;;;;;7.95;3.75;;;;;;;12.92;90.89;94397.44;1791720;79;20999;-71
2022/09/27 01:56:25;;;;;;;5.12;3.72;;;;;;;12.88;90.00;94385.30;1794995;80;21027;-71
2022/09/27 01:59:08;;;;;;;5.90;4.12;;;;;;;12.86;89.80;94395.94;1794545;79;21528;-70
2022/09/27 02:01:39;;;;;;;3.87;3.47;;;;;;;12.81;89.75;94391.33;1796474;80;21015;-71
2022/09/27 02:04:10;;;;;;;6.10;3.40;;;;;;;12.80;89.82;94392.71;1796444;79;20991;-70
2022/09/27 02:06:43;;;;;;;10.72;4.37;;;;;;;12.78;89.90;94396.30;1790140;80;21061;-70
2022/09/27 02:09:16;;;;;;;4.65;3.70;;;;;;;12.74;90.27;94393.39;1795570;80;21002;-70
2022/09/27 02:11:55;;;;;;;8.00;3.83;;;;;;;12.75;90.33;94397.77;1795183;80;20995;-71
2022/09/27 02:14:41;;;;;;;4.53;3.60;;;;;;;12.75;90.38;94396.45;1796600;80;21022;-70
2022/09/27 02:17:28;;;;;;;6.15;3.92;;;;;;;12.86;91.07;94392.45;1796266;79;21022;-71
2022/09/27 02:20:33;;;;;;;8.38;3.72;;;;;;;12.86;90.35;94377.41;1796142;80;21054;-71
2022/09/27 02:23:22;;;;;;;7.72;3.45;;;;;;;12.85;90.15;94369.09;1796035;80;21042;-71
2022/09/27 02:25:59;;;;;;;8.95;3.27;;;;;;;12.84;90.37;94373.97;1769547;80;21030;-71
2022/09/27 02:28:54;;;;;;;5.40;2.70;;;;;;;12.87;90.22;94375.62;1796077;80;21015;-71
2022/09/27 02:31:26;;;;;;;4.12;2.60;;;;;;;12.82;89.77;94369.68;1795372;80;21038;-71
2022/09/27 02:33:59;;;;;;;5.30;2.80;;;;;;;12.77;89.79;94382.69;1796266;80;20975;-71
2022/09/27 02:36:26;;;;;;;2.40;2.20;;;;;;;12.74;89.89;94389.42;1796438;80;20978;-71
2022/09/27 02:38:53;;;;;;;3.25;2.00;;;;;;;12.72;89.99;94387.77;1796160;80;21479;-68
2022/09/27 02:41:22;;;;;;;2.08;1.70;;;;;;;12.71;90.18;94372.36;1796138;80;21485;-70
2022/09/27 02:43:56;;;;;;;4.20;1.95;;;;;;;12.68;89.81;94360.61;1796320;80;21042;-71
2022/09/27 02:46:57;;;;;;;2.90;1.85;;;;;;;12.68;89.81;94360.61;1795781;80;21015;-70
2022/09/27 02:50:00;;;;;;;2.42;2.22;;;;;;;12.62;89.94;94360.02;1795980;80;21007;-71
2022/09/27 02:52:55;;;;;;;4.83;1.53;;;;;;;12.63;90.54;94355.99;1738107;80;21015;-71
2022/09/27 02:55:31;;;;;;;2.72;2.00;;;;;;;12.64;90.27;94352.41;1796216;80;21026;-71
2022/09/27 02:58:20;;;;;;;3.77;1.90;;;;;;;12.63;90.43;94353.34;1794889;80;21026;-71
2022/09/27 03:01:38;;;;;;;3.22;1.60;;;;;;;12.71;90.94;94357.81;1795160;79;21070;-71
2022/09/27 03:04:19;;;;;;;5.12;2.10;;;;;;;12.78;90.71;94367.66;1795766;80;21042;-71
2022/09/27 03:06:47;;;;;;;8.25;1.80;;;;;;;12.75;90.09;94358.07;1764923;80;20999;-71
2022/09/27 03:09:20;;;;;;;2.35;2.15;;;;;;;12.80;90.15;94366.24;1796234;79;21011;-71
2022/09/27 03:11:47;;;;;;;3.27;2.10;;;;;;;12.69;89.49;94362.31;1796288;79;21014;-71
2022/09/27 03:14:15;;;;;;;2.58;1.90;;;;;;;12.69;89.49;94362.31;1795919;80;21010;-71
2022/09/27 03:16:44;;;;;;;3.37;1.40;;;;;;;12.65;89.95;94362.52;1795041;80;21050;-71
2022/09/27 03:19:15;;;;;;;1.32;1.22;;;;;;;12.65;90.27;94358.55;1792456;80;21504;-71
2022/09/27 03:21:43;;;;;;;2.35;1.20;;;;;;;12.65;89.79;94362.52;1791493;80;21060;-70
2022/09/27 03:24:10;;;;;;;1.77;1.40;;;;;;;12.59;89.72;94355.73;1796379;80;21022;-71
2022/09/27 03:26:37;;;;;;;3.47;1.50;;;;;;;12.67;90.57;94350.93;1796231;80;20983;-71
2022/09/27 03:29:04;;;;;;;1.87;1.32;;;;;;;12.76;90.83;94350.98;1795892;80;21054;-70
2022/09/27 03:31:31;;;;;;;8.45;1.45;;;;;;;12.76;89.72;94350.98;1796347;80;21592;-71
2022/09/27 03:34:03;;;;;;;4.78;1.22;;;;;;;12.68;89.47;94355.31;1762197;79;21018;-71
2022/09/27 03:36:30;;;;;;;3.27;1.20;;;;;;;12.62;89.40;94347.64;1796132;80;21049;-71
2022/09/27 03:38:56;;;;;;;5.10;1.25;;;;;;;12.68;89.65;94345.20;1796372;79;21588;-71
2022/09/27 03:41:23;;;;;;;6.80;1.85;;;;;;;12.68;89.65;94345.20;1796100;80;21062;-71
2022/09/27 03:43:51;;;;;;;6.50;1.45;;;;;;;12.65;89.95;94349.28;1795947;80;21035;-71
2022/09/27 03:46:18;;;;;;;4.25;1.22;;;;;;;12.72;90.34;94351.57;1796396;79;21030;-71
2022/09/27 03:48:45;;;;;;;2.37;1.12;;;;;;;12.69;89.64;94357.02;1796354;80;20998;-72
2022/09/27 03:51:12;;;;;;;2.60;1.65;;;;;;;12.66;89.45;94351.88;1796494;79;20967;-71
2022/09/27 03:53:38;;;;;;;3.37;1.30;;;;;;;12.62;89.70;94354.25;1796557;80;20975;-71
2022/09/27 03:56:06;;;;;;;5.87;1.82;;;;;;;12.63;89.65;94359.96;1796036;80;21058;-70
2022/09/27 03:58:33;;;;;;;8.13;2.85;;;;;;;12.64;89.70;94350.23;1796224;80;21034;-71
2022/09/27 04:01:00;;;;;;;4.50;3.12;;;;;;;12.58;89.57;94354.02;1796462;80;21006;-70
2022/09/27 04:03:28;;;;;;;5.20;3.40;;;;;;;12.59;90.39;94355.73;1796390;80;21030;-71
2022/09/27 04:06:14;;;;;;;7.25;3.80;;;;;;;12.65;90.57;94347.52;1796448;80;21090;-70
2022/09/27 04:08:42;;;;;;;11.33;4.47;;;;;;;12.75;90.87;94350.57;1796418;80;21039;-71
2022/09/27 04:11:10;;;;;;;11.68;7.67;;;;;;;12.74;90.06;94350.19;1796164;80;21105;-70
2022/09/27 04:13:37;;;;;;;8.38;4.80;;;;;;;12.66;89.46;94348.38;1795950;80;20991;-71
2022/09/27 04:16:05;;;;;;;7.10;4.67;;;;;;;12.64;89.92;94359.48;1796264;80;21007;-69
2022/09/27 04:18:52;;;;;;;7.42;4.47;;;;;;;12.71;90.46;94354.31;1791900;80;21525;-71
2022/09/27 04:21:37;;;;;;;9.33;4.95;;;;;;;12.73;90.17;94353.78;1796029;80;20987;-71
2022/09/27 04:24:06;;;;;;;12.93;5.17;;;;;;;12.71;90.08;94346.37;1769613;80;21002;-71
2022/09/27 04:26:32;;;;;;;6.90;4.72;;;;;;;12.77;90.29;94351.36;1795928;80;21054;-71
2022/09/27 04:29:01;;;;;;;10.48;5.30;;;;;;;12.70;89.30;94349.92;1796294;80;21022;-71
2022/09/27 04:31:28;;;;;;;8.40;6.17;;;;;;;12.66;89.60;94357.16;1795922;80;21053;-71
2022/09/27 04:34:14;;;;;;;19.87;10.32;;;;;;;12.58;89.21;94350.53;1796100;80;21018;-71
2022/09/27 04:36:41;;;;;;;24.98;13.50;;;;;;;12.56;89.96;94355.41;1796195;79;21488;-71
2022/09/27 04:39:10;;;;;;;17.27;9.70;;;;;;;12.54;89.62;94359.91;1796122;80;20991;-71
2022/09/27 04:41:39;;;;;;;11.12;6.65;;;;;;;12.54;89.96;94365.20;1796067;80;21547;-71
2022/09/27 04:44:06;;;;;;;8.55;5.67;;;;;;;12.58;90.20;94359.78;1796310;80;21050;-71
2022/09/27 04:46:33;;;;;;;9.60;5.37;;;;;;;12.58;90.16;94352.70;1767590;80;21042;-70
2022/09/27 04:49:02;;;;;;;10.45;6.92;;;;;;;12.64;90.54;94356.84;1796316;80;21025;-71
2022/09/27 04:51:30;;;;;;;7.65;5.80;;;;;;;12.74;90.74;94356.34;1796042;80;21042;-71
2022/09/27 04:53:57;;;;;;;14.93;4.00;;;;;;;12.72;89.67;94359.52;1795969;80;21038;-72
2022/09/27 04:56:29;;;;;;;4.60;3.27;;;;;;;12.73;89.99;94361.72;1795724;80;21010;-72
2022/09/27 04:58:57;;;;;;;5.10;3.02;;;;;;;12.83;90.53;94368.30;1795265;80;21073;-73
2022/09/27 05:01:24;;;;;;;8.18;6.03;;;;;;;12.85;90.01;94362.47;1795465;80;21069;-66
2022/09/27 05:03:53;;;;;;;8.00;7.20;;;;;;;12.87;89.97;94361.06;1792114;80;21469;-71
2022/09/27 05:06:19;;;;;;;9.40;6.33;;;;;;;12.93;90.24;94360.31;1795685;79;21783;-70
2022/09/27 05:08:46;;;;;;;6.90;5.15;;;;;;;12.91;89.67;94362.64;1796378;80;21006;-67
2022/09/27 05:11:15;;;;;;;5.20;4.70;;;;;;;12.90;89.57;94364.44;1794190;80;21022;-66
2022/09/27 05:13:44;;;;;;;6.65;3.83;;;;;;;12.93;89.75;94346.22;1794458;80;21049;-69
2022/09/27 05:16:10;;;;;;;3.27;2.98;;;;;;;12.93;88.89;94348.40;1794921;80;21090;-67
2022/09/27 05:18:39;;;;;;;8.33;4.85;;;;;;;12.93;88.89;94348.40;1788202;80;21567;-67
2022/09/27 05:21:24;;;;;;;57.60;42.48;;;;;;;12.95;89.62;94354.92;1794045;80;22155;-67
2022/09/27 05:23:52;;;;;;;130.40;90.62;;;;;;;12.85;88.45;94348.35;1795529;80;21464;-74
2022/09/27 05:26:19;;;;;;;16.10;13.58;;;;;;;12.85;88.45;94348.35;1795891;80;21150;-72
2022/09/27 05:28:46;;;;;;;18.62;15.18;;;;;;;12.91;89.50;94354.70;1795934;79;21496;-71
2022/09/27 05:31:13;;;;;;;19.12;14.55;;;;;;;12.90;89.40;94353.84;1795691;79;21543;-70
2022/09/27 05:33:40;;;;;;;107.15;57.85;;;;;;;12.90;89.40;94353.84;1795232;79;21018;-73
2022/09/27 05:36:25;;;;;;;84.83;53.83;;;;;;;12.86;89.42;94358.88;1794846;80;21543;-69
2022/09/27 05:38:53;;;;;;;23.70;16.23;;;;;;;12.86;89.42;94358.88;1795776;79;21038;-71
2022/09/27 05:41:20;;;;;;;9.93;8.00;;;;;;;12.92;89.80;94350.64;1794887;79;21065;-69
2022/09/27 05:43:47;;;;;;;4.75;4.22;;;;;;;12.94;90.60;94341.30;1795287;80;21088;-69
2022/09/27 05:46:14;;;;;;;12.33;6.45;;;;;;;12.94;90.60;94341.30;1794914;80;21022;-66
2022/09/27 05:48:42;;;;;;;11.28;8.15;;;;;;;13.08;90.74;94351.22;1795695;79;21014;-69
2022/09/27 05:51:10;;;;;;;17.98;11.70;;;;;;;13.10;89.77;94350.69;1795863;79;21085;-68
2022/09/27 05:53:39;;;;;;;5.12;3.50;;;;;;;13.10;89.75;94351.57;1796043;79;21026;-66
2022/09/27 05:56:07;;;;;;;5.42;2.45;;;;;;;13.24;90.15;94344.27;1794088;80;21082;-66
2022/09/27 05:58:36;;;;;;;27.87;25.10;;;;;;;13.29;89.65;94342.28;1791064;80;21105;-71
2022/09/27 06:01:09;;;;;;;21.23;18.98;;;;;;;13.52;89.88;94353.53;1793140;80;21057;-71
2022/09/27 06:03:54;;;;;;;3.15;1.75;;;;;;;13.61;88.92;94348.64;1795284;79;21097;-69
2022/09/27 06:06:38;;;;;;;3.25;2.52;;;;;;;13.61;88.92;94348.64;1737197;82;21050;-70
2022/09/27 06:09:11;;;;;;;2.47;2.00;;;;;;;13.84;88.49;94353.23;1776558;79;21580;-69
2022/09/27 06:11:38;;;;;;;7.67;2.80;;;;;;;13.97;88.43;94356.12;1795144;79;21049;-70
2022/09/27 06:14:05;;;;;;;2.50;1.50;;;;;;;14.12;88.35;94355.80;1768759;80;20972;-68
2022/09/27 06:16:33;;;;;;;1.55;1.45;;;;;;;14.25;87.47;94355.53;1794591;80;21019;-70
2022/09/27 06:19:02;;;;;;;3.42;1.95;;;;;;;14.34;87.50;94356.83;1768244;80;21027;-70
2022/09/27 06:21:31;;;;;;;242.28;123.85;;;;;;;14.41;86.89;94360.44;1767219;81;21101;-72
2022/09/27 06:23:58;;;;;;;31.27;16.52;;;;;;;14.38;85.81;94364.55;1767935;81;21010;-70
2022/09/27 06:26:27;;;;;;;13.18;6.97;;;;;;;14.41;86.71;94359.55;1766955;81;21596;-71
2022/09/27 06:29:14;;;;;;;2.25;2.05;;;;;;;14.52;86.86;94353.21;1765199;81;21572;-68
2022/09/27 06:31:46;;;;;;;3.75;2.22;;;;;;;14.59;85.99;94351.09;1767481;81;20995;-71
2022/09/27 06:34:15;;;;;;;3.12;2.60;;;;;;;14.60;85.66;94349.70;1767170;81;20979;-67
2022/09/27 06:36:42;;;;;;;2.50;2.27;;;;;;;14.63;85.63;94346.88;1768560;80;21058;-67
2022/09/27 06:39:09;;;;;;;2.75;2.00;;;;;;;14.65;85.53;94346.33;1768340;80;21046;-68
2022/09/27 06:41:58;;;;;;;1.67;1.57;;;;;;;14.67;85.32;94341.80;1766407;81;21074;-70
2022/09/27 06:44:27;;;;;;;2.40;2.20;;;;;;;14.73;85.49;94336.61;1765066;81;21501;-70
2022/09/27 06:47:12;;;;;;;3.87;3.40;;;;;;;14.81;84.82;94333.53;1767393;80;22360;-70
2022/09/27 06:49:56;;;;;;;4.92;2.42;;;;;;;14.77;84.32;94336.84;1751860;80;21468;-71
2022/09/27 06:52:24;;;;;;;5.75;5.25;;;;;;;14.80;84.58;94339.80;1745657;81;21105;-67
2022/09/27 06:54:50;;;;;;;4.97;2.35;;;;;;;14.78;84.43;94343.00;1767716;80;21073;-70
2022/09/27 07:00:22;;;;;;;3.37;3.08;;;;;;;14.81;84.57;94338.84;1766957;80;21054;-70
2022/09/27 07:02:43;;;;;;;3.08;2.58;;;;;;;14.77;84.53;94337.31;1729573;83;21070;-67
2022/09/27 07:05:11;;;;;;;3.35;2.52;;;;;;;14.74;84.47;94335.69;1734760;80;21003;-66
2022/09/27 07:07:41;;;;;;;4.70;2.58;;;;;;;14.73;84.28;94334.44;1779186;80;21085;-65
2022/09/27 07:10:09;;;;;;;2.62;2.37;;;;;;;14.78;84.41;94331.05;1748771;81;21066;-65
2022/09/27 07:12:37;;;;;;;2.35;2.15;;;;;;;14.79;84.22;94330.98;1748409;81;21051;-66
2022/09/27 07:15:06;;;;;;;3.72;2.02;;;;;;;14.86;84.20;94332.33;1748871;82;21488;-66
2022/09/27 07:17:34;;;;;;;2.33;2.08;;;;;;;14.89;83.73;94328.20;1748893;82;21500;-66
2022/09/27 07:20:02;;;;;;;3.08;1.87;;;;;;;14.96;84.08;94331.83;1748326;81;21130;-66
2022/09/27 07:22:30;;;;;;;1.92;1.70;;;;;;;15.00;84.14;94326.27;1749160;81;21083;-66
2022/09/27 07:24:58;;;;;;;2.85;1.72;;;;;;;15.02;83.84;94334.12;1749094;81;21003;-66
2022/09/27 07:27:26;;;;;;;1.82;1.72;;;;;;;15.03;83.58;94331.40;1748060;81;21047;-66
2022/09/27 07:29:53;;;;;;;2.35;1.40;;;;;;;15.00;83.39;94334.23;1748682;82;21117;-66
2022/09/27 07:32:20;;;;;;;1.80;1.70;;;;;;;14.97;83.22;94323.79;1748945;81;21513;-66
2022/09/27 07:34:48;;;;;;;2.27;2.00;;;;;;;15.00;83.83;94331.58;1752174;81;21627;-66
2022/09/27 07:37:15;;;;;;;1.90;1.60;;;;;;;15.01;83.09;94330.63;1764274;81;21033;-67
2022/09/27 07:39:44;;;;;;;1.47;1.37;;;;;;;15.04;83.03;94335.75;1759341;81;20986;-67
2022/09/27 07:42:11;;;;;;;2.42;1.70;;;;;;;15.01;82.87;94323.98;1731041;81;21041;-67
2022/09/27 07:44:39;;;;;;;2.17;1.98;;;;;;;15.01;82.92;94326.64;1766485;81;21501;-67
2022/09/27 07:47:26;;;;;;;2.62;2.22;;;;;;;15.24;84.03;94325.81;1696408;84;21194;-67
2022/09/27 07:49:55;;;;;;;2.00;1.80;;;;;;;15.53;82.63;94319.68;1688971;84;20978;-67
2022/09/27 07:52:23;;;;;;;2.60;2.40;;;;;;;15.81;81.68;94321.23;1720564;81;21097;-66
2022/09/27 07:54:52;;;;;;;3.30;2.33;;;;;;;16.06;81.81;94322.80;1759290;81;21072;-66
2022/09/27 07:57:29;;;;;;;4.17;3.40;;;;;;;16.25;80.33;94328.33;1766363;81;21034;-66
2022/09/27 07:59:58;;;;;;;2.90;2.70;;;;;;;16.28;79.55;94319.70;1735469;81;21057;-66
2022/09/27 08:02:25;;;;;;;4.03;3.55;;;;;;;16.36;79.62;94313.42;1768139;81;21397;-68
2022/09/27 08:04:52;;;;;;;4.70;4.05;;;;;;;16.53;79.33;94314.17;1767058;81;21030;-66
2022/09/27 08:07:19;;;;;;;3.30;3.00;;;;;;;16.56;79.28;94311.34;1767200;81;20994;-67
2022/09/27 08:09:48;;;;;;;3.22;2.92;;;;;;;16.61;78.23;94307.91;1767476;81;21019;-67
2022/09/27 08:12:16;;;;;;;2.62;2.42;;;;;;;16.69;77.64;94316.75;1767476;81;20999;-67
2022/09/27 08:14:44;;;;;;;3.55;2.62;;;;;;;16.81;78.53;94321.34;1766470;81;21010;-67
2022/09/27 08:17:11;;;;;;;2.70;2.50;;;;;;;16.92;76.78;94321.50;1767700;81;21551;-65
2022/09/27 08:19:48;;;;;;;2.75;2.22;;;;;;;16.96;75.95;94312.38;1736140;81;21078;-65
2022/09/27 08:22:23;;;;;;;2.33;2.12;;;;;;;16.91;75.47;94313.14;1764218;81;21520;-72
2022/09/27 08:24:55;;;;;;;2.67;2.08;;;;;;;16.89;76.55;94312.86;1765448;81;21042;-69
2022/09/27 08:27:40;;;;;;;3.15;2.95;;;;;;;17.01;76.59;94312.93;1766511;81;21057;-68
2022/09/27 08:30:18;;;;;;;2.40;2.20;;;;;;;17.06;75.04;94308.64;1763979;81;21027;-68
2022/09/27 08:32:45;;;;;;;1.62;1.52;;;;;;;17.02;75.41;94303.97;1765618;81;21022;-67
2022/09/27 08:35:14;;;;;;;3.02;2.83;;;;;;;17.13;75.45;94305.93;1766145;81;21086;-66
2022/09/27 08:37:41;;;;;;;2.27;2.08;;;;;;;17.07;73.83;94303.67;1764073;81;21058;-66
2022/09/27 08:40:13;;;;;;;2.10;1.90;;;;;;;17.04;74.39;94307.87;1765521;81;21125;-68
2022/09/27 08:42:45;;;;;;;2.13;1.97;;;;;;;16.90;73.53;94306.09;1766339;81;21041;-71
2022/09/27 08:45:26;;;;;;;1.90;1.80;;;;;;;16.77;74.00;94304.64;1767561;81;21041;-70
2022/09/27 08:47:59;;;;;;;1.47;1.37;;;;;;;16.69;74.34;94299.44;1767288;81;21034;-64
2022/09/27 08:50:45;;;;;;;2.02;1.82;;;;;;;16.63;74.25;94300.20;1763411;81;21014;-68
2022/09/27 08:53:24;;;;;;;2.45;1.40;;;;;;;16.63;74.63;94301.53;1759557;81;20994;-66
2022/09/27 08:55:56;;;;;;;1.60;1.50;;;;;;;16.61;74.81;94297.27;1809722;78;20965;-65
2022/09/27 08:58:34;;;;;;;2.58;1.77;;;;;;;16.68;75.19;94295.05;1794243;78;21085;-67
2022/09/27 09:01:06;;;;;;;3.27;2.62;;;;;;;16.84;75.53;94299.83;1763209;80;21490;-70
2022/09/27 09:03:48;;;;;;;2.98;2.67;;;;;;;16.98;74.70;94300.27;1796997;80;21000;-68
2022/09/27 09:06:42;;;;;;;5.33;3.50;;;;;;;16.96;74.09;94300.37;1797443;80;21004;-68
2022/09/27 09:09:54;;;;;;;22.27;19.95;;;;;;;17.08;74.40;94292.05;1796697;80;21521;-67
2022/09/27 09:12:47;;;;;;;1.70;1.60;;;;;;;17.30;74.54;94295.52;1796766;80;21011;-67
2022/09/27 09:15:54;;;;;;;1.70;1.57;;;;;;;17.73;75.05;94287.32;1797269;80;21040;-67
2022/09/27 09:18:34;;;;;;;1.80;1.70;;;;;;;17.86;73.32;94290.05;1789153;80;21122;-68
2022/09/27 09:21:11;;;;;;;2.22;2.02;;;;;;;17.81;71.26;94293.02;1797206;80;21087;-67
2022/09/27 09:24:15;;;;;;;1.80;1.70;;;;;;;17.73;72.45;94288.66;1800857;80;21070;-68
2022/09/27 09:27:23;;;;;;;2.62;2.00;;;;;;;17.66;72.10;94292.69;1800709;80;21028;-68
2022/09/27 09:30:20;;;;;;;1.70;1.60;;;;;;;17.60;72.17;94287.78;1800240;80;21541;-68
2022/09/27 09:33:12;;;;;;;3.67;1.90;;;;;;;17.79;73.11;94276.70;1801063;80;21056;-68
2022/09/27 09:36:04;;;;;;;2.62;1.87;;;;;;;18.10;71.63;94262.17;1800763;80;20996;-68
2022/09/27 09:38:45;;;;;;;1.77;1.67;;;;;;;18.09;70.49;94262.66;1800624;80;21024;-68
2022/09/27 09:41:23;;;;;;;2.12;1.80;;;;;;;17.99;68.84;94269.56;1784430;80;21039;-68
2022/09/27 09:44:05;;;;;;;2.33;2.08;;;;;;;17.89;70.35;94261.81;1800773;80;21053;-67
2022/09/27 09:46:42;;;;;;;1.87;1.77;;;;;;;17.93;70.90;94270.00;1800914;80;21538;-67
2022/09/27 09:49:32;;;;;;;1.75;1.65;;;;;;;17.87;68.53;94255.27;1799424;80;21533;-67
2022/09/27 09:52:21;;;;;;;2.12;1.75;;;;;;;17.71;69.68;94255.89;1800251;80;20984;-67
2022/09/27 09:54:54;;;;;;;2.27;2.08;;;;;;;17.75;70.76;94253.40;1800090;80;20992;-68
2022/09/27 09:57:40;;;;;;;2.27;2.07;;;;;;;17.68;70.42;94250.28;1800817;80;21047;-68
2022/09/27 10:00:17;;;;;;;3.60;2.00;;;;;;;17.66;71.62;94242.86;1799037;80;21035;-68
2022/09/27 10:02:48;;;;;;;1.85;1.75;;;;;;;17.79;71.51;94245.57;1799990;80;21537;-68
2022/09/27 10:05:21;;;;;;;1.70;1.60;;;;;;;17.97;70.30;94233.27;1800264;80;20992;-68
2022/09/27 10:07:53;;;;;;;2.37;2.17;;;;;;;17.99;69.90;94226.86;1800573;80;21055;-68
2022/09/27 10:10:22;;;;;;;2.12;1.70;;;;;;;18.25;71.00;94233.55;1800941;80;20960;-68
2022/09/27 10:12:55;;;;;;;1.98;1.82;;;;;;;18.39;67.74;94229.41;1801018;80;21501;-68
2022/09/27 10:15:28;;;;;;;2.33;2.00;;;;;;;18.24;66.56;94230.49;1800898;80;21438;-67
2022/09/27 10:17:58;;;;;;;2.55;1.87;;;;;;;18.25;68.19;94230.39;1800736;80;21024;-68
2022/09/27 10:20:38;;;;;;;1.82;1.72;;;;;;;18.22;68.12;94221.28;1800793;80;21000;-67
2022/09/27 10:23:14;;;;;;;2.10;1.90;;;;;;;18.47;69.08;94223.06;1800746;80;21048;-67
2022/09/27 10:26:03;;;;;;;1.85;1.75;;;;;;;18.80;67.77;94224.30;1800842;80;21008;-67
2022/09/27 10:28:45;;;;;;;1.90;1.80;;;;;;;19.04;65.73;94220.30;1800352;80;21016;-68
2022/09/27 10:31:16;;;;;;;1.37;1.27;;;;;;;19.19;66.31;94219.16;1800745;80;20984;-68
2022/09/27 10:34:08;;;;;;;3.47;1.70;;;;;;;19.20;65.95;94224.02;1799337;80;21593;-68
2022/09/27 10:36:37;;;;;;;3.98;1.85;;;;;;;19.19;64.87;94207.62;1798457;80;21513;-68
2022/09/27 10:39:08;;;;;;;1.92;1.80;;;;;;;19.38;65.71;94210.63;1800821;80;21008;-68
2022/09/27 10:41:40;;;;;;;2.05;1.77;;;;;;;19.54;66.18;94212.14;1800439;80;21068;-68
2022/09/27 10:44:27;;;;;;;1.70;1.60;;;;;;;19.48;65.48;94203.23;1799911;80;21589;-68
2022/09/27 10:47:00;;;;;;;1.62;1.52;;;;;;;19.37;65.84;94206.72;1799793;80;21012;-68
2022/09/27 10:49:40;;;;;;;2.25;1.82;;;;;;;19.40;65.79;94198.46;1801105;80;21082;-68
2022/09/27 10:52:22;;;;;;;1.95;1.75;;;;;;;19.62;65.67;94192.34;1734899;80;21027;-68
2022/09/27 10:55:19;;;;;;;1.67;1.57;;;;;;;20.01;64.52;94191.13;1801011;80;20987;-68
2022/09/27 10:57:53;;;;;;;1.65;1.55;;;;;;;20.35;62.10;94186.28;1759791;80;21032;-68
2022/09/27 11:00:33;;;;;;;2.00;1.45;;;;;;;21.10;61.61;94196.33;1800748;80;20995;-68
2022/09/27 11:03:09;;;;;;;2.10;1.90;;;;;;;21.06;61.08;94193.03;1800919;80;21490;-68
2022/09/27 11:05:38;;;;;;;1.72;1.55;;;;;;;20.61;58.65;94205.66;1800576;80;20991;-68
2022/09/27 11:08:31;;;;;;;3.65;1.77;;;;;;;20.47;60.76;94196.87;1800810;80;21007;-68
2022/09/27 11:11:25;;;;;;;4.22;2.05;;;;;;;20.34;60.25;94192.13;1800589;80;21008;-68
2022/09/27 11:14:03;;;;;;;;;;;;;;;19.94;61.22;94193.07;1803554;80;21462;-69
2022/09/27 11:17:06;;;;;;;2.58;1.80;;;;;;;19.77;61.82;94193.87;1800858;80;20131;-70
2022/09/27 11:19:58;;;;;;;2.12;2.02;;;;;;;19.58;62.81;94193.08;1797046;80;21529;-68
2022/09/27 11:22:48;;;;;;;2.50;2.10;;;;;;;19.47;63.11;94190.34;1772945;80;20988;-68
2022/09/27 11:25:37;;;;;;;3.22;1.50;;;;;;;19.32;63.53;94191.51;1795212;80;21048;-68
2022/09/27 11:28:23;;;;;;;1.60;1.50;;;;;;;19.21;63.80;94193.17;1795093;80;21534;-68
2022/09/27 11:31:08;;;;;;;3.70;1.67;;;;;;;19.06;64.33;94193.47;1794888;80;21051;-69
2022/09/27 11:34:05;;;;;;;1.80;1.70;;;;;;;18.99;65.11;94187.22;1789818;80;21538;-69
2022/09/27 11:36:56;;;;;;;2.92;1.70;;;;;;;18.89;65.61;94184.86;1795227;80;20992;-68
2022/09/27 11:39:41;;;;;;;2.00;1.70;;;;;;;18.79;65.60;94188.69;1793881;80;21474;-68
2022/09/27 11:42:48;;;;;;;1.75;1.65;;;;;;;18.72;65.93;94191.88;1794792;80;21490;-68
2022/09/27 11:45:24;;;;;;;2.52;1.90;;;;;;;18.67;66.67;94190.91;1795143;80;21004;-68
2022/09/27 11:48:08;;;;;;;3.12;2.37;;;;;;;18.53;68.03;94188.38;1794875;80;21513;-68
2022/09/27 11:50:59;;;;;;;2.45;1.80;;;;;;;18.51;68.35;94187.63;1795585;80;21506;-68
2022/09/27 11:53:54;;;;;;;2.08;1.87;;;;;;;18.51;68.17;94183.62;1795207;80;21446;-69
2022/09/27 11:56:47;;;;;;;3.95;2.10;;;;;;;18.55;67.20;94177.95;1795453;80;21061;-68
2022/09/27 11:59:26;;;;;;;2.85;1.85;;;;;;;18.68;67.02;94167.22;1795070;80;21012;-69
2022/09/27 12:02:08;;;;;;;2.83;1.82;;;;;;;18.69;66.44;94166.24;1795113;80;21072;-68
2022/09/27 12:04:52;;;;;;;2.50;1.60;;;;;;;18.84;66.80;94159.45;1795364;80;21016;-68
2022/09/27 12:07:58;;;;;;;2.85;1.72;;;;;;;18.96;66.46;94157.20;1795372;80;21530;-68
2022/09/27 12:10:25;;;;;;;1.87;1.47;;;;;;;19.05;66.88;94155.19;1695435;84;21034;-68
2022/09/27 12:12:55;;;;;;;3.70;1.25;;;;;;;19.02;64.73;94146.92;1762480;80;21016;-68
2022/09/27 12:15:33;;;;;;;1.65;1.55;;;;;;;19.05;64.74;94151.19;1794969;80;21467;-68